SHEH weather

Edificio Huidobro Heliport
Santiago, Santiago Metropolitan Region, Chile

Public forecast

Using degrees Celsius for public forecast. Weather courtesy of forecast.io.

METAR (pilot weather report)

Closest report is Eulogio Sánchez Airport, 3.4 nm (6.3 km) SSE. Retrieved 2019/07/21 18:00 UTC (12 minutes ago):

SCTB 211800Z 21006KT 170V270 2000 +RA BKN005 OVC010 06/04 Q1019

TAF (pilot weather forecast)

Closest forecast is Comodoro Arturo Merino Benítez International Airport, 10.7 nm (19.8 km) W. Retrieved 2019/07/21 18:00 UTC (12 minutes ago):

TAF SCEL 211631Z 2118/2218 16006KT 9999 BKN020 BKN050 TX08/2119Z TN02/2211Z TEMPO 2118/2120 8000 -SHRA SCT015 BKN025 BECMG 2120/2122 SCT030 BKN060 BECMG 2122/2200 FEW030 SCT070 BECMG 2201/2203 16004KT FEW090 BECMG 2204/2206 CAVOK TEMPO 2208/2212 02004KT 0800 BCFG NSC